San Marcos, CA (92078)

11:53 AM PST on March 03, 2015 (GMT -0800)
APRSWXNET Oceanside CA US | Change Station
CLOSE
Current Station
Personal Weather Station
Location: San Marcos, CA
Elevation: 393 ft
Nearby Weather Stations

Elev 393 ft 33.12 °N, 117.17 °W | Updated 21 minutes ago

Clear
Clear
65 °F
Feels Like 65 °F
N
4
Wind Variable Wind from NNW
Gusts 7.0 mph

Today
High -- | Low -- °F
--% Chance of Precip.
Yesterday
High -- | Low -- °F
Precip. -- in
6:14 AM 5:47 PM
Waxing Gibbous, 97% visible
Pressure 29.93 in
Visibility 10.0 miles
Clouds Scattered Clouds 4500 ft
Dew Point 43 °F
Humidity 45%
Rainfall 0.03 in
Snow Depth Not available.
UV 5 out of 12
Pollen 7.90 out of 12
Air Quality Not available.
Flu Activity Not available.
METAR KCRQ 031853Z 25005KT 10SM SCT045 16/05 A2993 RMK AO2 SLP135 T01610050

More Conditions Fewer Conditions

Pressure 29.93 in
Visibility 10.0 miles
Clouds Scattered Clouds 4500 ft
Dew Point 43 °F
Humidity 45%
Rainfall 0.03 in
Snow Depth Not available.
UV 5 out of 12
Pollen 7.90 out of 12
Air Quality Not available.
Flu Activity Not available.
METAR KCRQ 031853Z 25005KT 10SM SCT045 16/05 A2993 RMK AO2 SLP135 T01610050

More Conditions Fewer Conditions

10-Day Weather Forecast

Almanac

Astronomy

Mar. 03, 2015 Rise Set
Actual Time
Civil Twilight
Nautical Twilight
Astronomical Twilight
Moon
Length of Visible Light
Length of Day
Tomorrow will be .
, % of the Moon is Illuminated

Today's Extremes

State Highs State Lows

Community

WunderPhotos

Upload Photos

1,802,217 photos uploaded!

WunderBlogs® & News

Nearby

Air Quality

  Air Quality AQ Index Pollutant
Not available.

Snow Depth

Station Depth Elevation

Earthquake Activity

City Distance Mag. Time & Date
Minimum magnitude displayed is 2.5.

Coastal Water Temperatures

Place Temperature

Nearby Weather Stations